Main page
METAR-TAF:

METAR-TAF

Airports :

Frankfort Dow Memorial Field

Frankfort, Michigan, United States

latitude: 44-37-30N, longitude: 086-12-02W, elevation: 633 ft

Current weather observation

The report was made 26 minutes ago, at 08:15 UTC
Calm wind
Temperature 34°F
Humidity 75%
Pressure 30.03 in. Hg
Visibility: 10 miles
Clear sky

METAR: KFKS 220815Z AUTO 00000KT 10SM CLR 01/M03 A3003 RMK AO2 T00071028

Time: 04:41 (08:41 UTC)


TAF: missing

Weather observations and forecasts of more than 4000 airports (METAR and TAF reports).

The available stations are represented by yellow and red dots on the map.

Hover mouse over dot to see the name of the station.

Then click to see weather observations and forecasts.

To change the map : click on the green buttons with a black cross to zoom in, on the green button with a dash to zoom out, or on the green arrows for adjacent maps.


METAR-TAF: